createdAt,value
2017-08-11T00:01:58.949Z,7.73
2017-08-11T00:04:27.188Z,5.77
2017-08-11T00:06:55.419Z,6.77
2017-08-11T00:09:23.689Z,7.13
2017-08-11T00:11:51.921Z,5.67
2017-08-11T00:14:20.153Z,6.00
2017-08-11T00:16:48.410Z,6.67
2017-08-11T00:19:17.107Z,5.90
2017-08-11T00:21:45.349Z,5.30
2017-08-11T00:24:13.600Z,6.53
2017-08-11T00:26:41.836Z,6.53
2017-08-11T00:29:10.070Z,7.30
2017-08-11T00:31:38.434Z,6.60
2017-08-11T00:34:06.675Z,5.67
2017-08-11T00:36:35.205Z,5.90
2017-08-11T00:39:03.480Z,5.20
2017-08-11T00:41:31.720Z,5.93
2017-08-11T00:43:59.947Z,7.93
2017-08-11T00:46:29.403Z,6.60
2017-08-11T00:48:57.848Z,6.23
2017-08-11T00:51:26.072Z,7.23
2017-08-11T00:53:54.343Z,6.80
2017-08-11T00:56:22.575Z,6.80
2017-08-11T00:58:50.826Z,6.80
2017-08-11T01:01:19.135Z,7.13
2017-08-11T01:03:47.371Z,8.00
2017-08-11T01:06:15.608Z,5.63
2017-08-11T01:08:43.892Z,7.40
2017-08-11T01:11:12.135Z,7.97
2017-08-11T01:13:40.366Z,5.70
2017-08-11T01:16:08.726Z,8.50
2017-08-11T01:18:37.312Z,8.00
2017-08-11T01:21:05.847Z,7.90
2017-08-11T01:23:34.252Z,7.70
2017-08-11T01:26:02.489Z,5.43
2017-08-11T01:28:31.125Z,8.73
2017-08-11T01:30:59.450Z,8.90
2017-08-11T01:33:27.699Z,9.20
2017-08-11T01:35:55.971Z,10.53
2017-08-11T01:38:24.260Z,10.43
2017-08-11T01:40:52.748Z,8.93
2017-08-11T01:43:21.393Z,10.87
2017-08-11T01:45:49.687Z,7.30
2017-08-11T01:48:17.928Z,11.13
2017-08-11T01:50:46.231Z,10.73
2017-08-11T01:53:14.518Z,11.80
2017-08-11T01:55:42.776Z,11.90
2017-08-11T01:58:11.036Z,11.97
2017-08-11T02:00:39.300Z,7.50
2017-08-11T02:03:07.549Z,9.20
2017-08-11T02:05:36.196Z,11.60
2017-08-11T02:08:04.501Z,7.00
2017-08-11T02:10:32.760Z,10.53
2017-08-11T02:13:01.013Z,11.67
2017-08-11T02:15:37.102Z,12.07
2017-08-11T02:18:05.368Z,11.50
2017-08-11T02:20:33.616Z,11.00
2017-08-11T02:23:01.913Z,11.57
2017-08-11T02:25:30.187Z,10.77
2017-08-11T02:27:58.513Z,11.40
2017-08-11T02:30:26.780Z,13.13
2017-08-11T02:32:55.032Z,12.07
2017-08-11T02:35:23.280Z,14.00
2017-08-11T02:37:51.789Z,12.70
2017-08-11T02:40:20.053Z,13.47
2017-08-11T02:42:48.303Z,12.50
2017-08-11T02:45:16.693Z,13.43
2017-08-11T02:47:44.929Z,11.43
2017-08-11T02:50:13.190Z,11.27
2017-08-11T02:52:41.886Z,12.60
2017-08-11T02:55:10.134Z,11.73
2017-08-11T02:57:38.371Z,10.80
2017-08-11T03:00:06.642Z,13.60
2017-08-11T03:02:34.894Z,9.47
2017-08-11T03:05:03.139Z,10.97
2017-08-11T03:07:31.427Z,13.83
2017-08-11T03:09:59.785Z,13.80
2017-08-11T03:12:28.454Z,14.87
2017-08-11T03:14:56.712Z,10.47
2017-08-11T03:17:24.967Z,14.33
2017-08-11T03:19:53.224Z,12.37
2017-08-11T03:22:22.123Z,15.03
2017-08-11T03:24:50.381Z,15.70
2017-08-11T03:27:19.029Z,11.17
2017-08-11T03:29:47.413Z,14.30
2017-08-11T03:32:16.475Z,11.30
2017-08-11T03:34:44.726Z,14.00
2017-08-11T03:37:13.395Z,12.60
2017-08-11T03:39:41.642Z,15.60
2017-08-11T03:42:09.896Z,14.10
2017-08-11T03:44:38.212Z,12.80
2017-08-11T03:47:06.477Z,7.10
2017-08-11T03:49:34.715Z,13.77
2017-08-11T03:52:03.235Z,16.70
2017-08-11T03:54:31.511Z,18.50
2017-08-11T03:56:59.748Z,10.70
2017-08-11T03:59:28.099Z,17.30
2017-08-11T04:01:56.327Z,8.33
2017-08-11T04:04:24.931Z,17.70
2017-08-11T04:06:53.197Z,15.50
2017-08-11T04:09:21.581Z,14.90
2017-08-11T04:11:49.827Z,16.37
2017-08-11T04:14:18.211Z,16.83
2017-08-11T04:16:46.506Z,18.17
2017-08-11T04:19:14.756Z,18.87
2017-08-11T04:21:43.044Z,16.43
2017-08-11T04:24:11.296Z,18.03
2017-08-11T04:26:39.552Z,17.23
2017-08-11T04:29:08.631Z,16.83
2017-08-11T04:31:37.275Z,15.07
2017-08-11T04:34:05.538Z,17.63
2017-08-11T04:36:34.051Z,17.77
2017-08-11T04:39:02.303Z,16.40
2017-08-11T04:41:30.555Z,14.87
2017-08-11T04:43:58.834Z,10.00
2017-08-11T04:46:27.108Z,17.60
2017-08-11T04:48:55.388Z,9.97
2017-08-11T04:51:23.669Z,14.70
2017-08-11T04:53:51.972Z,9.33
2017-08-11T04:56:20.260Z,15.93
2017-08-11T04:58:48.561Z,16.70
2017-08-11T05:01:17.227Z,14.40
2017-08-11T05:03:45.472Z,11.30
2017-08-11T05:06:13.820Z,15.37
2017-08-11T05:08:42.846Z,16.50
2017-08-11T05:11:11.104Z,15.13
2017-08-11T05:13:39.398Z,17.70
2017-08-11T05:16:07.676Z,18.23
2017-08-11T05:18:35.948Z,18.37
2017-08-11T05:21:04.257Z,17.60
2017-08-11T05:23:32.516Z,14.93
2017-08-11T05:26:00.778Z,14.90
2017-08-11T05:28:29.121Z,19.90
2017-08-11T05:30:57.381Z,19.07
2017-08-11T05:33:26.037Z,18.13
2017-08-11T05:35:54.297Z,16.13
2017-08-11T05:38:22.544Z,18.93
2017-08-11T05:40:50.801Z,19.00
2017-08-11T05:43:19.099Z,16.90
2017-08-11T05:45:47.346Z,14.90
2017-08-11T05:48:15.988Z,15.87
2017-08-11T05:50:44.365Z,16.20
2017-08-11T05:53:12.856Z,18.53
2017-08-11T05:55:41.099Z,19.87
2017-08-11T05:58:09.404Z,19.43
2017-08-11T06:00:37.655Z,18.33
2017-08-11T06:03:06.135Z,20.33
2017-08-11T06:05:34.433Z,19.40
2017-08-11T06:08:02.695Z,18.47
2017-08-11T06:10:30.937Z,19.33
2017-08-11T06:12:59.211Z,19.90
2017-08-11T06:15:27.454Z,20.70
2017-08-11T06:17:55.717Z,21.80
2017-08-11T06:20:24.001Z,20.53
2017-08-11T06:22:52.246Z,18.27
2017-08-11T06:25:20.508Z,15.40
2017-08-11T06:27:48.773Z,19.93
2017-08-11T06:30:17.933Z,21.60
2017-08-11T06:32:46.367Z,19.53
2017-08-11T06:35:14.639Z,17.73
2017-08-11T06:37:43.653Z,21.93
2017-08-11T06:40:11.902Z,14.50
2017-08-11T06:42:40.196Z,17.47
2017-08-11T06:45:08.434Z,21.27
2017-08-11T06:47:37.248Z,23.47
2017-08-11T06:50:05.580Z,21.60
2017-08-11T06:52:33.849Z,22.17
2017-08-11T06:55:02.140Z,24.07
2017-08-11T06:57:31.298Z,16.20
2017-08-11T06:59:59.588Z,23.73
2017-08-11T07:02:27.849Z,23.57
2017-08-11T07:04:56.098Z,21.20
2017-08-11T07:07:24.784Z,22.80
2017-08-11T07:09:53.098Z,24.37
2017-08-11T07:12:22.168Z,25.97
2017-08-11T07:14:50.688Z,24.73
2017-08-11T07:17:18.937Z,14.97
2017-08-11T07:19:47.216Z,19.07
2017-08-11T07:22:15.740Z,23.93
2017-08-11T07:24:43.985Z,24.27
2017-08-11T07:27:12.249Z,22.50
2017-08-11T07:29:40.731Z,26.27
2017-08-11T07:32:08.982Z,25.23
2017-08-11T07:34:37.249Z,26.37
2017-08-11T07:37:05.523Z,26.77
2017-08-11T07:39:33.773Z,26.10
2017-08-11T07:42:02.455Z,18.97
2017-08-11T07:44:31.107Z,14.83
2017-08-11T07:46:59.355Z,19.80
2017-08-11T07:49:27.641Z,27.70
2017-08-11T07:51:55.887Z,28.87
2017-08-11T07:54:24.145Z,30.03
2017-08-11T07:56:52.411Z,25.13
2017-08-11T07:59:20.672Z,28.80
2017-08-11T08:01:48.939Z,30.30
2017-08-11T08:04:17.441Z,31.03
2017-08-11T08:06:46.131Z,33.47
2017-08-11T08:09:14.390Z,33.00
2017-08-11T08:11:42.925Z,34.80
2017-08-11T08:14:11.258Z,34.40
2017-08-11T08:16:39.487Z,33.97
2017-08-11T08:19:07.782Z,34.60
2017-08-11T08:21:36.036Z,34.10
2017-08-11T08:24:04.289Z,34.97
2017-08-11T08:26:33.011Z,36.60
2017-08-11T08:29:01.281Z,39.67
2017-08-11T08:31:29.527Z,41.13
2017-08-11T08:33:58.413Z,38.87
2017-08-11T08:36:27.084Z,39.90
2017-08-11T08:38:55.731Z,35.40
2017-08-11T08:41:24.310Z,38.00
2017-08-11T08:43:53.448Z,38.40
2017-08-11T08:46:21.824Z,38.03
2017-08-11T08:48:50.147Z,38.50
2017-08-11T08:51:18.413Z,37.10
2017-08-11T08:53:46.752Z,31.30
2017-08-11T08:56:15.125Z,30.30
2017-08-11T08:58:43.369Z,30.53
2017-08-11T09:01:11.838Z,29.93
2017-08-11T09:03:40.138Z,31.73
2017-08-11T09:06:08.384Z,30.83
2017-08-11T09:08:36.670Z,31.13
2017-08-11T09:11:04.926Z,31.20
2017-08-11T09:13:33.179Z,25.50
2017-08-11T09:16:02.146Z,26.40
2017-08-11T09:18:30.526Z,26.50
2017-08-11T09:20:58.759Z,25.80
2017-08-11T09:23:27.008Z,22.40
2017-08-11T09:26:17.687Z,28.40
2017-08-11T09:28:57.628Z,28.43
2017-08-11T09:31:38.553Z,20.50
2017-08-11T09:34:18.492Z,28.70
2017-08-11T09:36:47.473Z,29.07
2017-08-11T09:39:16.140Z,33.03
2017-08-11T09:41:44.404Z,30.80
2017-08-11T09:44:12.864Z,30.50
2017-08-11T09:46:41.112Z,32.73
2017-08-11T09:49:09.399Z,30.53
2017-08-11T09:51:37.749Z,28.70
2017-08-11T09:54:06.093Z,25.63
2017-08-11T09:56:34.342Z,28.90
2017-08-11T09:59:02.709Z,28.53
2017-08-11T10:01:31.352Z,30.13
2017-08-11T10:03:59.596Z,29.13
2017-08-11T10:06:27.849Z,29.17
2017-08-11T10:08:56.402Z,31.10
2017-08-11T10:11:24.743Z,29.93
2017-08-11T10:13:53.046Z,30.27
2017-08-11T10:16:21.321Z,31.30
2017-08-11T10:18:49.986Z,30.00
2017-08-11T10:21:18.269Z,30.17
2017-08-11T10:23:46.537Z,30.53
2017-08-11T10:26:15.188Z,27.60
2017-08-11T10:28:43.474Z,23.77
2017-08-11T10:33:46.604Z,22.87
2017-08-11T10:36:14.848Z,20.70
2017-08-11T10:38:43.090Z,20.00
2017-08-11T10:41:11.361Z,16.57
2017-08-11T10:43:40.044Z,17.07
2017-08-11T10:46:09.011Z,19.10
2017-08-11T10:48:37.290Z,17.00
2017-08-11T10:51:05.537Z,16.93
2017-08-11T10:53:33.797Z,18.27
2017-08-11T10:56:02.073Z,17.97
2017-08-11T10:58:30.314Z,16.60
2017-08-11T11:00:58.556Z,16.23
2017-08-11T11:03:26.858Z,15.50
2017-08-11T11:05:55.124Z,15.50
2017-08-11T11:08:23.375Z,17.60
2017-08-11T11:10:51.869Z,16.37
2017-08-11T11:13:20.113Z,16.57
2017-08-11T11:15:48.363Z,15.77
2017-08-11T11:18:16.653Z,15.50
2017-08-11T11:20:45.588Z,15.20
2017-08-11T11:23:13.835Z,15.47
2017-08-11T11:25:42.105Z,15.00
2017-08-11T11:28:10.379Z,10.60
2017-08-11T11:30:38.627Z,14.50
2017-08-11T11:33:06.906Z,12.30
2017-08-11T11:35:35.154Z,9.73
2017-08-11T11:38:03.397Z,11.00
2017-08-11T11:40:31.855Z,12.60
2017-08-11T11:43:00.385Z,13.53
2017-08-11T11:45:28.628Z,13.60
2017-08-11T11:47:56.900Z,14.57
2017-08-11T11:50:25.144Z,15.70
2017-08-11T11:52:53.433Z,15.30
2017-08-11T11:55:21.732Z,14.20
2017-08-11T11:57:49.983Z,15.47
2017-08-11T12:00:18.240Z,15.23
2017-08-11T12:02:46.521Z,15.60
2017-08-11T12:05:15.008Z,15.47
2017-08-11T12:07:43.255Z,16.17
2017-08-11T12:10:11.653Z,16.60
2017-08-11T12:12:39.980Z,15.87
2017-08-11T12:15:08.230Z,16.50
2017-08-11T12:17:36.505Z,15.67
2017-08-11T12:20:04.769Z,14.40
2017-08-11T12:22:33.020Z,13.97
2017-08-11T12:25:01.306Z,13.87
2017-08-11T12:27:30.187Z,14.63
2017-08-11T12:29:58.447Z,14.50
2017-08-11T12:32:26.826Z,14.20
2017-08-11T12:34:55.219Z,13.80
2017-08-11T12:37:23.881Z,14.07
2017-08-11T12:39:52.155Z,15.00
2017-08-11T12:42:20.412Z,14.70
2017-08-11T12:44:48.660Z,12.70
2017-08-11T12:47:17.017Z,12.87
2017-08-11T12:49:46.507Z,12.10
2017-08-11T12:52:15.000Z,13.37
2017-08-11T12:54:43.676Z,13.30
2017-08-11T12:57:11.939Z,14.40
2017-08-11T12:59:40.204Z,12.87
2017-08-11T13:02:08.501Z,13.67
2017-08-11T13:04:37.178Z,13.80
2017-08-11T13:07:05.422Z,12.43
2017-08-11T13:09:33.708Z,12.47
2017-08-11T13:12:01.955Z,11.93
2017-08-11T13:14:30.280Z,11.17
2017-08-11T13:16:58.789Z,12.10
2017-08-11T13:19:27.043Z,11.10
2017-08-11T13:21:55.315Z,10.23
2017-08-11T13:24:23.923Z,11.50
2017-08-11T13:26:52.580Z,11.73
2017-08-11T13:29:20.878Z,11.27
2017-08-11T13:31:49.345Z,11.30
2017-08-11T13:34:17.660Z,11.63
2017-08-11T13:36:45.966Z,12.20
2017-08-11T13:39:14.281Z,10.70
2017-08-11T13:41:42.635Z,10.20
2017-08-11T13:44:10.945Z,10.20
2017-08-11T13:46:39.747Z,10.30
2017-08-11T13:49:08.000Z,9.10
2017-08-11T13:51:36.656Z,8.97
2017-08-11T13:54:04.982Z,8.90
2017-08-11T13:56:33.633Z,9.87
2017-08-11T13:59:01.901Z,11.33
2017-08-11T14:01:30.270Z,10.90
2017-08-11T14:03:58.586Z,10.87
2017-08-11T14:06:26.916Z,10.50
2017-08-11T14:08:55.206Z,12.40
2017-08-11T14:11:23.453Z,11.00
2017-08-11T14:13:51.756Z,12.10
2017-08-11T14:16:20.047Z,11.30
2017-08-11T14:18:48.285Z,12.13
2017-08-11T14:21:16.540Z,10.40
2017-08-11T14:23:50.602Z,11.20
2017-08-11T14:26:18.891Z,10.20
2017-08-11T14:28:47.261Z,11.37
2017-08-11T14:31:15.546Z,11.37
2017-08-11T14:33:43.879Z,12.57
2017-08-11T14:36:12.377Z,13.40
2017-08-11T14:38:40.674Z,12.07
2017-08-11T14:41:08.913Z,10.93
2017-08-11T14:43:38.276Z,12.40
2017-08-11T14:46:06.612Z,14.00
2017-08-11T14:48:34.883Z,14.63
2017-08-11T14:51:03.136Z,13.97
2017-08-11T14:53:31.449Z,15.00
2017-08-11T14:55:59.712Z,15.23
2017-08-11T14:58:27.959Z,16.10
2017-08-11T15:00:56.397Z,16.30
2017-08-11T15:03:24.733Z,15.93
2017-08-11T15:05:52.960Z,17.50
2017-08-11T15:08:21.236Z,16.30
2017-08-11T15:10:49.881Z,16.03
2017-08-11T15:13:18.132Z,17.20
2017-08-11T15:15:46.411Z,18.37
2017-08-11T15:18:14.648Z,18.23
2017-08-11T15:20:42.927Z,16.83
2017-08-11T15:23:11.299Z,18.50
2017-08-11T15:25:39.559Z,18.80
2017-08-11T15:28:07.837Z,16.20
2017-08-11T15:30:36.107Z,16.67
2017-08-11T15:33:04.569Z,15.97
2017-08-11T15:35:33.264Z,15.40
2017-08-11T15:38:01.627Z,15.23
2017-08-11T15:40:30.058Z,14.87
2017-08-11T15:42:58.732Z,15.93
2017-08-11T15:45:27.321Z,14.60
2017-08-11T15:47:55.797Z,13.90
2017-08-11T15:50:25.771Z,16.40
2017-08-11T15:52:54.318Z,15.10
2017-08-11T15:55:22.810Z,16.83
2017-08-11T15:57:51.617Z,17.20
2017-08-11T16:00:20.025Z,15.93
2017-08-11T16:02:48.301Z,17.80
2017-08-11T16:05:16.682Z,14.30
2017-08-11T16:07:44.937Z,14.30
2017-08-11T16:10:13.229Z,17.33
2017-08-11T16:12:41.509Z,17.67
2017-08-11T16:15:09.785Z,18.40
2017-08-11T16:17:38.281Z,18.73
2017-08-11T16:20:06.646Z,18.80
2017-08-11T16:22:35.010Z,16.30
2017-08-11T16:25:03.273Z,19.50
2017-08-11T16:27:31.539Z,18.73
2017-08-11T16:30:00.001Z,19.60
2017-08-11T16:32:28.453Z,20.60
2017-08-11T16:34:56.697Z,19.00
2017-08-11T16:37:24.953Z,19.87
2017-08-11T16:39:53.360Z,17.43
2017-08-11T16:42:21.659Z,19.53
2017-08-11T16:44:49.948Z,18.43
2017-08-11T16:47:18.600Z,18.50
2017-08-11T16:49:46.852Z,18.47
2017-08-11T16:52:15.162Z,16.73
2017-08-11T16:54:43.430Z,18.43
2017-08-11T16:57:11.683Z,16.17
2017-08-11T16:59:40.203Z,17.23
2017-08-11T17:02:08.460Z,16.73
2017-08-11T17:04:36.712Z,17.00
2017-08-11T17:07:05.748Z,18.33
2017-08-11T17:09:34.008Z,17.13
2017-08-11T17:12:02.257Z,16.80
2017-08-11T17:14:30.508Z,14.37
2017-08-11T17:16:58.839Z,14.70
2017-08-11T17:19:27.117Z,14.17
2017-08-11T17:21:55.788Z,13.80
2017-08-11T17:24:24.096Z,13.30
2017-08-11T17:26:52.345Z,11.70
2017-08-11T17:29:20.596Z,13.00
2017-08-11T17:31:48.883Z,11.70
2017-08-11T17:34:17.943Z,18.27
2017-08-11T17:36:46.194Z,15.83
2017-08-11T17:39:15.174Z,16.60
2017-08-11T17:41:43.416Z,13.30
2017-08-11T17:44:11.667Z,14.13
2017-08-11T17:46:39.948Z,12.30
2017-08-11T17:49:08.189Z,14.40
2017-08-11T17:51:36.882Z,15.87
2017-08-11T17:54:05.521Z,14.07
2017-08-11T17:56:33.768Z,14.10
2017-08-11T17:59:02.030Z,12.90
2017-08-11T18:01:30.313Z,12.20
2017-08-11T18:03:58.645Z,14.80
2017-08-11T18:06:27.020Z,13.60
2017-08-11T18:08:55.252Z,15.40
2017-08-11T18:11:23.550Z,15.67
2017-08-11T18:13:51.916Z,12.63
2017-08-11T18:16:20.219Z,15.40
2017-08-11T18:18:48.636Z,15.10
2017-08-11T18:21:17.861Z,13.70
2017-08-11T18:23:46.604Z,14.70
2017-08-11T18:26:14.885Z,14.83
2017-08-11T18:28:43.210Z,14.80
2017-08-11T18:31:11.469Z,14.40
2017-08-11T18:33:39.797Z,15.90
2017-08-11T18:36:08.054Z,13.80
2017-08-11T18:38:36.425Z,15.00
2017-08-11T18:41:04.884Z,14.20
2017-08-11T18:43:33.137Z,14.60
2017-08-11T18:46:01.453Z,12.50
2017-08-11T18:48:30.843Z,14.27
2017-08-11T18:50:59.084Z,14.13
2017-08-11T18:53:27.389Z,13.00
2017-08-11T18:55:55.651Z,15.10
2017-08-11T18:58:24.307Z,14.27
2017-08-11T19:00:52.632Z,16.30
2017-08-11T19:03:20.914Z,15.10
2017-08-11T19:05:49.188Z,13.67
2017-08-11T19:08:17.459Z,12.60
2017-08-11T19:10:45.726Z,16.80
2017-08-11T19:13:14.032Z,15.47
2017-08-11T19:15:42.286Z,13.50
2017-08-11T19:18:10.533Z,16.10
2017-08-11T19:20:39.203Z,13.03
2017-08-11T19:23:07.678Z,12.70
2017-08-11T19:25:35.940Z,14.63
2017-08-11T19:28:04.253Z,13.87
2017-08-11T19:30:32.652Z,13.00
2017-08-11T19:33:00.962Z,13.60
2017-08-11T19:35:29.261Z,13.60
2017-08-11T19:37:57.612Z,13.13
2017-08-11T19:40:25.864Z,15.57
2017-08-11T19:42:54.158Z,13.50
2017-08-11T19:45:22.455Z,15.87
2017-08-11T19:47:50.728Z,14.80
2017-08-11T19:50:19.006Z,16.00
2017-08-11T19:52:47.732Z,15.87
2017-08-11T19:55:16.029Z,13.60
2017-08-11T19:57:44.344Z,14.80
2017-08-11T20:00:12.613Z,14.00
2017-08-11T20:02:40.962Z,13.57
2017-08-11T20:05:11.189Z,13.50
2017-08-11T20:07:43.385Z,15.20
2017-08-11T20:10:11.674Z,13.67
2017-08-11T20:12:40.683Z,15.87
2017-08-11T20:15:09.988Z,12.83
2017-08-11T20:17:38.246Z,12.27
2017-08-11T20:20:06.520Z,16.93
2017-08-11T20:22:34.836Z,15.00
2017-08-11T20:25:03.138Z,13.33
2017-08-11T20:27:31.662Z,15.13
2017-08-11T20:29:59.965Z,13.70
2017-08-11T20:32:28.876Z,15.30
2017-08-11T20:34:58.372Z,14.77
2017-08-11T20:37:27.079Z,17.50
2017-08-11T20:39:55.340Z,16.27
2017-08-11T20:42:30.277Z,13.63
2017-08-11T20:45:02.441Z,13.00
2017-08-11T20:47:32.455Z,15.10
2017-08-11T20:50:00.753Z,16.40
2017-08-11T20:52:29.001Z,16.87
2017-08-11T20:54:57.280Z,13.47
2017-08-11T20:57:25.533Z,16.80
2017-08-11T20:59:53.810Z,16.53
2017-08-11T21:02:22.127Z,12.50
2017-08-11T21:04:50.400Z,12.80
2017-08-11T21:07:18.676Z,13.27
2017-08-11T21:09:48.786Z,15.30
2017-08-11T21:12:17.448Z,14.03
2017-08-11T21:14:46.092Z,11.07
2017-08-11T21:17:14.379Z,12.87
2017-08-11T21:19:42.653Z,13.90
2017-08-11T21:22:10.895Z,16.50
2017-08-11T21:24:39.222Z,12.20
2017-08-11T21:27:07.457Z,13.80
2017-08-11T21:29:35.724Z,15.90
2017-08-11T21:32:04.013Z,13.00
2017-08-11T21:34:32.272Z,11.10
2017-08-11T21:37:00.529Z,16.13
2017-08-11T21:39:29.437Z,16.30
2017-08-11T21:41:58.615Z,13.47
2017-08-11T21:44:27.253Z,12.77
2017-08-11T21:46:55.542Z,14.27
2017-08-11T21:49:24.233Z,14.43
2017-08-11T21:51:52.491Z,11.40
2017-08-11T21:54:20.813Z,10.00
2017-08-11T21:56:49.083Z,14.53
2017-08-11T21:59:17.741Z,13.40
2017-08-11T22:01:46.031Z,13.40
2017-08-11T22:04:14.676Z,14.87
2017-08-11T22:06:44.571Z,14.60
2017-08-11T22:09:13.298Z,15.37
2017-08-11T22:11:41.552Z,13.90
2017-08-11T22:14:09.811Z,15.33
2017-08-11T22:16:38.102Z,13.07
2017-08-11T22:19:06.826Z,13.97
2017-08-11T22:21:35.135Z,15.50
2017-08-11T22:24:03.470Z,13.00
2017-08-11T22:26:31.715Z,13.00
2017-08-11T22:28:59.973Z,14.73
2017-08-11T22:31:28.240Z,13.00
2017-08-11T22:33:56.503Z,14.80
2017-08-11T22:36:25.143Z,11.63
2017-08-11T22:38:53.436Z,14.80
2017-08-11T22:41:21.680Z,10.90
2017-08-11T22:43:49.977Z,12.10
2017-08-11T22:46:18.407Z,11.90
2017-08-11T22:48:46.652Z,9.83
2017-08-11T22:51:15.236Z,10.30
2017-08-11T22:53:43.655Z,8.70
2017-08-11T22:56:11.930Z,9.43
2017-08-11T22:58:40.173Z,9.80
2017-08-11T23:01:08.486Z,9.40
2017-08-11T23:03:36.736Z,7.83
2017-08-11T23:06:04.977Z,8.90
2017-08-11T23:08:33.232Z,8.37
2017-08-11T23:11:01.484Z,8.00
2017-08-11T23:13:29.749Z,8.60
2017-08-11T23:15:58.074Z,7.27
2017-08-11T23:18:26.378Z,7.90
2017-08-11T23:20:54.650Z,6.90
2017-08-11T23:23:22.964Z,6.90
2017-08-11T23:25:51.212Z,7.40
2017-08-11T23:28:19.873Z,6.80
2017-08-11T23:30:48.938Z,7.13
2017-08-11T23:33:17.192Z,6.00
2017-08-11T23:35:45.427Z,5.37
2017-08-11T23:38:13.699Z,5.33
2017-08-11T23:40:41.962Z,5.00
2017-08-11T23:43:10.570Z,4.57
2017-08-11T23:45:38.860Z,4.10
2017-08-11T23:48:07.322Z,4.17
2017-08-11T23:50:35.623Z,3.87
2017-08-11T23:53:04.284Z,3.67
2017-08-11T23:55:32.533Z,3.43
2017-08-11T23:58:00.786Z,2.80
